Centerview, North Carolina
Current Conditions -  °F | °C
As of 11:52 AM on Thursday 30 Oct 2014 (Local Time) from KJQF Reporting Station
Clear Clear  
Wind Chill: 64°   Ceiling: Unl
Heat Index: 64°   Visibility: 10mi
Dew Point: 36°   Wind: 8mph
Humidity: 34%   Direction: 20°NNE
Pressure: 30.11"   Gusts: NA
Location:  35.5043°N, 80.6706°W
Report Text: KJQF 301552Z 02007KT 10SM CLR 18/02 A3011
Loading
Personal Weather Stations






























Interactive Weather Map
Tropical Storm Tracking
New forecast layout! Learn more

10-Day Weather Forecast

Advertisements
Track Severe Weather on mobile